Aurora, New Mexico
Current Conditions -  °F | °C
As of 9:53 PM on Saturday 20 Dec 2014 (Local Time) from KLVS Reporting Station
Clear Clear  
Wind Chill: 18°   Ceiling: Unl
Heat Index: 25°   Visibility: 10mi
Dew Point: 13°   Wind: 6mph
Humidity: 60%   Direction: 70°ENE
Pressure: 29.96"   Gusts: NA
Location:  36.0243°N, 105.005°W
Report Text: KLVS 210453Z AUTO 07005KT 10SM CLR M04/M11 A2996 RMK AO2 SLP132 T10391106
Loading
Personal Weather Stations






























Interactive Weather Map New forecast layout! Learn more

10-Day Weather Forecast

Advertisements
Track Severe Weather on mobile